createdAt,value
2019-03-19T00:00:18.835Z,99.90
2019-03-19T00:02:47.368Z,99.90
2019-03-19T00:05:16.072Z,99.90
2019-03-19T00:07:44.535Z,99.90
2019-03-19T00:10:13.050Z,99.90
2019-03-19T00:12:41.514Z,99.90
2019-03-19T00:15:13.214Z,99.90
2019-03-19T00:17:41.706Z,99.90
2019-03-19T00:20:15.474Z,99.90
2019-03-19T00:22:44.000Z,99.90
2019-03-19T00:25:43.015Z,99.90
2019-03-19T00:28:11.466Z,99.90
2019-03-19T00:30:39.911Z,99.90
2019-03-19T00:33:08.379Z,99.90
2019-03-19T00:35:36.814Z,99.90
2019-03-19T00:38:05.413Z,99.90
2019-03-19T00:40:33.859Z,99.90
2019-03-19T00:43:02.430Z,99.90
2019-03-19T00:45:30.871Z,99.90
2019-03-19T00:47:59.395Z,99.90
2019-03-19T00:50:27.868Z,99.90
2019-03-19T00:52:56.564Z,99.90
2019-03-19T00:55:25.031Z,99.90
2019-03-19T00:57:53.719Z,99.90
2019-03-19T01:00:22.178Z,99.90
2019-03-19T01:02:50.710Z,99.90
2019-03-19T01:05:19.303Z,99.90
2019-03-19T01:07:47.743Z,99.90
2019-03-19T01:10:17.653Z,99.90
2019-03-19T01:12:46.522Z,99.90
2019-03-19T01:15:15.192Z,99.90
2019-03-19T01:17:43.662Z,99.90
2019-03-19T01:20:13.762Z,99.90
2019-03-19T01:22:42.333Z,99.90
2019-03-19T01:25:11.224Z,99.90
2019-03-19T01:27:39.687Z,99.90
2019-03-19T01:30:13.894Z,99.90
2019-03-19T01:32:43.028Z,99.90
2019-03-19T01:35:11.475Z,99.90
2019-03-19T01:37:39.997Z,99.90
2019-03-19T01:40:11.885Z,99.90
2019-03-19T01:42:40.565Z,99.90
2019-03-19T01:45:12.860Z,99.90
2019-03-19T01:47:41.421Z,99.90
2019-03-19T01:50:14.703Z,99.90
2019-03-19T01:52:43.221Z,99.90
2019-03-19T01:55:12.917Z,99.90
2019-03-19T01:57:41.624Z,99.90
2019-03-19T02:00:14.834Z,99.90
2019-03-19T02:02:43.455Z,99.90
2019-03-19T02:05:11.991Z,99.90
2019-03-19T02:07:40.498Z,99.90
2019-03-19T02:10:15.344Z,99.90
2019-03-19T02:12:43.922Z,99.90
2019-03-19T02:15:15.129Z,99.90
2019-03-19T02:17:43.749Z,99.90
2019-03-19T02:20:14.540Z,99.90
2019-03-19T02:22:42.994Z,99.90
2019-03-19T02:25:11.537Z,99.90
2019-03-19T02:27:39.980Z,99.90
2019-03-19T02:30:13.495Z,99.90
2019-03-19T02:32:41.970Z,99.90
2019-03-19T02:35:10.976Z,99.90
2019-03-19T02:37:39.698Z,99.90
2019-03-19T02:40:13.231Z,99.90
2019-03-19T02:42:41.869Z,99.90
2019-03-19T02:45:15.045Z,99.90
2019-03-19T02:47:43.646Z,99.90
2019-03-19T02:50:16.991Z,99.90
2019-03-19T02:52:45.861Z,99.90
2019-03-19T02:55:14.314Z,99.90
2019-03-19T02:57:42.784Z,99.90
2019-03-19T03:00:20.515Z,99.90
2019-03-19T03:02:55.062Z,99.90
2019-03-19T03:05:23.511Z,99.90
2019-03-19T03:07:52.140Z,99.90
2019-03-19T03:10:20.933Z,99.90
2019-03-19T03:12:49.476Z,99.90
2019-03-19T03:15:17.983Z,99.90
2019-03-19T03:17:52.412Z,99.90
2019-03-19T03:20:20.930Z,99.90
2019-03-19T03:22:50.230Z,99.90
2019-03-19T03:25:18.793Z,99.90
2019-03-19T03:27:47.304Z,99.90
2019-03-19T03:30:22.771Z,99.90
2019-03-19T03:32:51.308Z,99.90
2019-03-19T03:35:19.900Z,99.90
2019-03-19T03:37:48.428Z,99.90
2019-03-19T03:40:17.931Z,99.90
2019-03-19T03:42:46.883Z,99.90
2019-03-19T03:45:19.074Z,99.90
2019-03-19T03:47:47.599Z,99.90
2019-03-19T03:50:19.247Z,99.90
2019-03-19T03:52:47.773Z,99.90
2019-03-19T03:55:17.646Z,99.90
2019-03-19T03:57:46.182Z,99.90
2019-03-19T04:00:21.805Z,99.90
2019-03-19T04:02:51.352Z,99.90
2019-03-19T04:05:20.035Z,99.90
2019-03-19T04:07:48.530Z,99.90
2019-03-19T04:10:17.896Z,99.90
2019-03-19T04:12:46.592Z,99.90
2019-03-19T04:15:16.499Z,99.90
2019-03-19T04:17:44.976Z,99.90
2019-03-19T04:20:14.493Z,99.90
2019-03-19T04:22:43.026Z,99.90
2019-03-19T04:25:11.717Z,99.90
2019-03-19T04:27:40.994Z,99.90
2019-03-19T04:30:17.442Z,99.90
2019-03-19T04:32:45.977Z,99.90
2019-03-19T04:35:14.516Z,99.90
2019-03-19T04:37:43.843Z,99.90
2019-03-19T04:40:13.797Z,99.90
2019-03-19T04:42:42.318Z,99.90
2019-03-19T04:45:13.484Z,99.90
2019-03-19T04:47:42.324Z,99.90
2019-03-19T04:50:14.872Z,99.90
2019-03-19T04:52:45.080Z,99.90
2019-03-19T04:55:15.024Z,99.90
2019-03-19T04:57:43.477Z,99.90
2019-03-19T05:00:18.890Z,99.90
2019-03-19T05:02:47.399Z,99.90
2019-03-19T05:05:15.866Z,99.90
2019-03-19T05:07:44.388Z,99.90
2019-03-19T05:10:16.451Z,99.90
2019-03-19T05:12:45.040Z,99.90
2019-03-19T05:15:14.024Z,99.90
2019-03-19T05:17:42.751Z,99.90
2019-03-19T05:20:13.737Z,99.90
2019-03-19T05:22:42.195Z,99.90
2019-03-19T05:25:11.105Z,99.90
2019-03-19T05:27:39.634Z,99.90
2019-03-19T05:30:11.282Z,99.90
2019-03-19T05:32:39.837Z,99.90
2019-03-19T05:35:09.652Z,99.90
2019-03-19T05:37:38.571Z,99.90
2019-03-19T05:40:19.151Z,99.90
2019-03-19T05:42:47.775Z,99.90
2019-03-19T05:45:16.683Z,99.90
2019-03-19T05:47:46.229Z,99.90
2019-03-19T05:50:23.775Z,99.90
2019-03-19T05:52:52.253Z,99.90
2019-03-19T05:55:20.776Z,99.90
2019-03-19T05:57:50.335Z,99.90
2019-03-19T06:00:21.556Z,99.90
2019-03-19T06:02:50.079Z,99.90
2019-03-19T06:05:20.927Z,99.90
2019-03-19T06:07:48.723Z,99.90
2019-03-19T06:10:17.208Z,99.90
2019-03-19T06:12:45.801Z,99.90
2019-03-19T06:15:15.374Z,99.90
2019-03-19T06:17:43.817Z,99.90
2019-03-19T06:20:14.866Z,99.90
2019-03-19T06:22:44.068Z,99.90
2019-03-19T06:25:13.340Z,99.90
2019-03-19T06:27:41.903Z,99.90
2019-03-19T06:30:21.747Z,99.90
2019-03-19T06:32:50.211Z,99.90
2019-03-19T06:35:18.652Z,99.90
2019-03-19T06:37:47.371Z,99.90
2019-03-19T06:40:16.775Z,99.90
2019-03-19T06:42:49.241Z,99.90
2019-03-19T06:45:19.735Z,99.90
2019-03-19T06:47:48.195Z,99.90
2019-03-19T06:50:20.236Z,99.90
2019-03-19T06:52:48.865Z,99.90
2019-03-19T06:55:19.595Z,99.90
2019-03-19T06:57:48.443Z,99.90
2019-03-19T07:00:21.925Z,99.90
2019-03-19T07:02:51.076Z,99.90
2019-03-19T07:05:21.456Z,99.90
2019-03-19T07:07:50.235Z,99.90
2019-03-19T07:10:19.794Z,99.90
2019-03-19T07:12:48.262Z,99.90
2019-03-19T07:15:19.008Z,99.90
2019-03-19T07:17:47.884Z,99.90
2019-03-19T07:20:19.057Z,99.90
2019-03-19T07:22:47.501Z,99.90
2019-03-19T07:25:16.019Z,99.90
2019-03-19T07:27:44.491Z,99.90
2019-03-19T07:30:16.183Z,99.90
2019-03-19T07:32:45.034Z,99.90
2019-03-19T07:35:13.638Z,99.90
2019-03-19T07:37:42.191Z,99.90
2019-03-19T07:40:12.527Z,99.90
2019-03-19T07:42:41.035Z,99.90
2019-03-19T07:45:15.035Z,99.90
2019-03-19T07:47:43.719Z,99.90
2019-03-19T07:50:15.630Z,99.90
2019-03-19T07:52:44.324Z,99.90
2019-03-19T07:55:13.006Z,99.90
2019-03-19T07:57:41.495Z,99.90
2019-03-19T08:00:23.501Z,99.90
2019-03-19T08:02:52.051Z,99.90
2019-03-19T08:05:20.653Z,99.90
2019-03-19T08:07:49.126Z,99.90
2019-03-19T08:10:20.677Z,99.90
2019-03-19T08:12:49.129Z,99.90
2019-03-19T08:15:19.067Z,99.90
2019-03-19T08:17:47.583Z,99.90
2019-03-19T08:20:16.891Z,99.90
2019-03-19T08:22:45.402Z,99.90
2019-03-19T08:25:16.078Z,99.90
2019-03-19T08:27:44.526Z,99.90
2019-03-19T08:30:15.227Z,99.90
2019-03-19T08:32:43.669Z,99.90
2019-03-19T08:35:12.141Z,99.90
2019-03-19T08:37:40.667Z,99.90
2019-03-19T08:40:16.492Z,99.90
2019-03-19T08:42:45.020Z,99.90
2019-03-19T08:45:18.614Z,99.90
2019-03-19T08:47:47.093Z,99.90
2019-03-19T08:50:18.293Z,99.90
2019-03-19T08:52:46.817Z,99.90
2019-03-19T08:55:15.536Z,99.90
2019-03-19T08:57:44.145Z,99.90
2019-03-19T09:00:15.659Z,99.90
2019-03-19T09:02:44.226Z,99.90
2019-03-19T09:05:13.238Z,99.90
2019-03-19T09:07:41.758Z,99.90
2019-03-19T09:10:14.831Z,99.90
2019-03-19T09:12:43.584Z,89.30
2019-03-19T09:15:13.547Z,69.40
2019-03-19T09:17:42.072Z,57.40
2019-03-19T09:20:13.579Z,49.60
2019-03-19T09:22:42.183Z,48.50
2019-03-19T09:25:11.693Z,45.10
2019-03-19T09:34:40.567Z,42.20
2019-03-19T09:37:09.096Z,43.10
2019-03-19T09:39:37.560Z,44.50
2019-03-19T09:42:06.027Z,44.50
2019-03-19T09:44:34.662Z,43.80
2019-03-19T09:47:04.360Z,45.60
2019-03-19T09:49:33.143Z,45.60
2019-03-19T09:52:01.625Z,46.60
2019-03-19T09:54:32.195Z,48.10
2019-03-19T09:57:00.261Z,46.80
2019-03-19T09:59:28.709Z,49.70
2019-03-19T10:01:57.254Z,53.80
2019-03-19T10:04:25.698Z,56.10
2019-03-19T10:06:54.416Z,54.30
2019-03-19T10:09:22.952Z,56.60
2019-03-19T10:11:51.424Z,54.90
2019-03-19T10:14:22.858Z,52.90
2019-03-19T10:16:51.332Z,53.90
2019-03-19T10:19:19.869Z,50.90
2019-03-19T10:21:48.431Z,50.80
2019-03-19T10:24:17.147Z,53.80
2019-03-19T10:26:45.619Z,56.90
2019-03-19T10:29:14.060Z,56.60
2019-03-19T10:31:42.785Z,56.90
2019-03-19T10:34:44.881Z,59.00
2019-03-19T10:37:13.425Z,63.20
2019-03-19T10:39:41.872Z,61.70
2019-03-19T10:42:10.441Z,65.40
2019-03-19T10:44:38.965Z,66.60
2019-03-19T10:47:07.430Z,67.00
2019-03-19T10:49:36.150Z,72.60
2019-03-19T10:52:04.705Z,74.40
2019-03-19T10:54:33.147Z,78.30
2019-03-19T10:57:01.660Z,79.80
2019-03-19T10:59:30.127Z,78.20
2019-03-19T11:01:58.707Z,78.20
2019-03-19T11:04:27.182Z,81.90
2019-03-19T11:06:55.691Z,76.60
2019-03-19T11:09:24.154Z,84.20
2019-03-19T11:11:52.598Z,81.00
2019-03-19T11:14:21.053Z,69.00
2019-03-19T11:16:49.505Z,76.10
2019-03-19T11:19:18.046Z,79.90
2019-03-19T11:21:46.491Z,84.00
2019-03-19T11:24:15.220Z,82.90
2019-03-19T11:26:43.686Z,83.30
2019-03-19T11:29:12.127Z,85.90
2019-03-19T11:31:40.587Z,85.70
2019-03-19T11:34:09.122Z,82.50
2019-03-19T11:36:37.590Z,83.50
2019-03-19T11:39:08.443Z,81.90
2019-03-19T11:41:37.225Z,83.50
2019-03-19T11:44:05.673Z,84.30
2019-03-19T11:46:34.393Z,85.40
2019-03-19T11:49:02.912Z,84.90
2019-03-19T11:51:32.662Z,84.80
2019-03-19T11:54:01.369Z,89.40
2019-03-19T11:56:29.902Z,87.40
2019-03-19T11:58:58.663Z,87.60
2019-03-19T12:01:27.214Z,87.00
2019-03-19T12:03:55.682Z,89.80
2019-03-19T12:06:24.118Z,89.10
2019-03-19T12:08:55.518Z,89.10
2019-03-19T12:11:23.976Z,86.20
2019-03-19T12:13:52.503Z,85.90
2019-03-19T12:16:21.213Z,87.40
2019-03-19T12:18:49.682Z,86.80
2019-03-19T12:21:19.762Z,83.00
2019-03-19T12:23:48.309Z,82.90
2019-03-19T12:26:17.016Z,81.70
2019-03-19T12:28:45.585Z,79.60
2019-03-19T12:31:14.028Z,79.80
2019-03-19T12:33:42.495Z,75.50
2019-03-19T12:36:11.027Z,76.60
2019-03-19T12:38:39.501Z,76.00
2019-03-19T12:41:07.955Z,69.50
2019-03-19T12:43:36.423Z,66.10
2019-03-19T12:46:04.953Z,67.20
2019-03-19T12:48:33.405Z,61.70
2019-03-19T12:51:02.140Z,55.60
2019-03-19T12:53:30.854Z,52.60
2019-03-19T12:55:59.320Z,51.10
2019-03-19T12:58:27.763Z,50.20
2019-03-19T13:00:56.271Z,55.30
2019-03-19T13:03:24.777Z,55.30
2019-03-19T13:05:53.335Z,56.70
2019-03-19T13:08:22.127Z,58.90
2019-03-19T13:10:50.598Z,58.20
2019-03-19T13:13:19.112Z,56.20
2019-03-19T13:15:47.580Z,58.70
2019-03-19T13:18:16.034Z,61.60
2019-03-19T13:20:46.158Z,60.00
2019-03-19T13:23:14.885Z,61.70
2019-03-19T13:25:43.405Z,63.90
2019-03-19T13:28:11.880Z,64.20
2019-03-19T13:30:44.852Z,62.90
2019-03-19T13:33:10.580Z,64.80
2019-03-19T13:35:39.026Z,64.60
2019-03-19T13:38:07.495Z,63.40
2019-03-19T13:40:36.203Z,60.00
2019-03-19T13:43:04.758Z,58.10
2019-03-19T13:45:33.268Z,58.90
2019-03-19T13:48:25.904Z,58.60
2019-03-19T13:50:54.353Z,60.90
2019-03-19T13:53:22.837Z,63.50
2019-03-19T13:55:51.535Z,66.20
2019-03-19T13:58:20.332Z,65.70
2019-03-19T14:00:55.518Z,68.20
2019-03-19T14:03:18.972Z,69.50
2019-03-19T14:05:47.722Z,70.00
2019-03-19T14:08:19.882Z,69.70
2019-03-19T14:10:48.430Z,70.90
2019-03-19T14:13:20.927Z,78.40
2019-03-19T14:15:49.752Z,86.70
2019-03-19T14:18:18.195Z,75.80
2019-03-19T14:20:47.520Z,80.50
2019-03-19T14:23:16.024Z,83.40
2019-03-19T14:25:44.554Z,82.20
2019-03-19T14:28:19.808Z,78.10
2019-03-19T14:30:48.622Z,78.70
2019-03-19T14:33:17.059Z,78.90
2019-03-19T14:35:45.789Z,81.20
2019-03-19T14:38:14.228Z,81.20
2019-03-19T14:40:42.694Z,78.70
2019-03-19T14:43:11.989Z,74.80
2019-03-19T14:45:40.704Z,79.70
2019-03-19T14:48:09.254Z,80.40
2019-03-19T14:50:37.687Z,80.40
2019-03-19T14:53:06.238Z,78.30
2019-03-19T14:55:34.747Z,81.40
2019-03-19T14:58:03.768Z,79.10
2019-03-19T15:00:32.349Z,76.70
2019-03-19T15:03:00.821Z,76.20
2019-03-19T15:05:29.272Z,78.30
2019-03-19T15:07:57.747Z,81.10
2019-03-19T15:10:26.337Z,76.50
2019-03-19T15:12:55.170Z,76.80
2019-03-19T15:15:23.603Z,71.80
2019-03-19T15:17:52.220Z,70.00
2019-03-19T15:20:24.826Z,72.60
2019-03-19T15:22:53.358Z,72.00
2019-03-19T15:25:22.281Z,67.70
2019-03-19T15:27:50.806Z,66.70
2019-03-19T15:30:20.186Z,62.00
2019-03-19T15:32:48.651Z,58.80
2019-03-19T15:35:17.192Z,61.40
2019-03-19T15:37:45.655Z,63.20
2019-03-19T15:40:15.605Z,60.10
2019-03-19T15:42:44.431Z,56.60
2019-03-19T15:45:30.028Z,56.50
2019-03-19T15:47:58.572Z,55.60
2019-03-19T15:50:27.052Z,56.00
2019-03-19T15:52:55.516Z,54.20
2019-03-19T15:55:23.977Z,51.20
2019-03-19T15:57:52.515Z,53.30
2019-03-19T16:00:21.799Z,55.00
2019-03-19T16:02:50.274Z,55.20
2019-03-19T16:05:18.783Z,56.60
2019-03-19T16:07:47.275Z,56.10
2019-03-19T16:10:19.014Z,59.30
2019-03-19T16:12:47.603Z,58.10
2019-03-19T16:15:21.342Z,60.20
2019-03-19T16:17:49.873Z,63.30
2019-03-19T16:20:20.401Z,66.00
2019-03-19T16:22:48.870Z,67.20
2019-03-19T16:25:17.395Z,67.90
2019-03-19T16:27:45.882Z,66.20
2019-03-19T16:30:16.514Z,65.60
2019-03-19T16:32:45.015Z,67.50
2019-03-19T16:35:13.807Z,66.80
2019-03-19T16:37:42.693Z,67.00
2019-03-19T16:40:19.545Z,68.20
2019-03-19T16:42:48.083Z,69.80
2019-03-19T16:45:18.686Z,70.10
2019-03-19T16:47:47.352Z,73.70
2019-03-19T16:50:18.977Z,75.00
2019-03-19T16:52:48.819Z,78.70
2019-03-19T16:55:19.336Z,75.30
2019-03-19T16:57:47.802Z,75.90
2019-03-19T17:00:24.873Z,76.60
2019-03-19T17:02:53.344Z,78.70
2019-03-19T17:05:22.109Z,80.50
2019-03-19T17:07:50.662Z,82.40
2019-03-19T17:10:24.968Z,83.40
2019-03-19T17:12:59.471Z,84.60
2019-03-19T17:15:27.988Z,87.00
2019-03-19T17:17:56.609Z,90.10
2019-03-19T17:20:25.057Z,90.70
2019-03-19T17:22:53.612Z,91.40
2019-03-19T17:25:26.949Z,91.50
2019-03-19T17:27:55.500Z,92.10
2019-03-19T17:30:26.215Z,93.60
2019-03-19T17:32:54.780Z,94.40
2019-03-19T17:35:23.239Z,95.50
2019-03-19T17:37:51.686Z,96.60
2019-03-19T17:40:20.212Z,98.30
2019-03-19T17:42:48.660Z,98.30
2019-03-19T17:45:17.336Z,99.90
2019-03-19T17:47:45.925Z,99.90
2019-03-19T17:50:25.067Z,99.90
2019-03-19T17:52:54.996Z,99.90
2019-03-19T17:55:23.555Z,99.90
2019-03-19T17:57:52.032Z,99.90
2019-03-19T18:00:25.472Z,99.90
2019-03-19T18:02:53.952Z,99.90
2019-03-19T18:05:22.551Z,99.90
2019-03-19T18:07:51.002Z,99.90
2019-03-19T18:10:19.540Z,99.90
2019-03-19T18:12:50.013Z,99.90
2019-03-19T18:15:19.398Z,99.90
2019-03-19T18:17:47.846Z,99.90
2019-03-19T18:20:19.386Z,99.90
2019-03-19T18:22:47.855Z,99.90
2019-03-19T18:25:17.388Z,99.90
2019-03-19T18:27:45.980Z,99.90
2019-03-19T18:30:22.855Z,99.90
2019-03-19T18:32:51.374Z,99.90
2019-03-19T18:35:20.034Z,99.90
2019-03-19T18:37:50.664Z,99.90
2019-03-19T18:40:20.115Z,99.90
2019-03-19T18:42:48.740Z,99.90
2019-03-19T18:45:18.993Z,99.90
2019-03-19T18:47:47.813Z,99.90
2019-03-19T18:50:18.817Z,99.90
2019-03-19T18:52:47.583Z,99.90
2019-03-19T18:55:19.062Z,99.90
2019-03-19T18:57:47.679Z,99.90
2019-03-19T19:00:18.259Z,99.90
2019-03-19T19:02:50.376Z,99.90
2019-03-19T19:05:18.924Z,99.90
2019-03-19T19:07:47.442Z,99.90
2019-03-19T19:10:21.152Z,99.90
2019-03-19T19:12:49.401Z,99.90
2019-03-19T19:15:23.191Z,99.90
2019-03-19T19:17:51.771Z,99.90
2019-03-19T19:20:20.399Z,99.90
2019-03-19T19:22:49.408Z,99.90
2019-03-19T19:25:23.441Z,99.90
2019-03-19T19:27:51.959Z,99.90
2019-03-19T19:30:24.336Z,99.90
2019-03-19T19:33:01.012Z,99.90
2019-03-19T19:35:23.050Z,99.90
2019-03-19T19:37:51.522Z,99.90
2019-03-19T19:40:20.141Z,99.90
2019-03-19T19:42:48.673Z,99.90
2019-03-19T19:45:18.439Z,99.90
2019-03-19T19:47:46.917Z,99.90
2019-03-19T19:50:16.595Z,99.90
2019-03-19T19:52:45.058Z,99.90
2019-03-19T19:55:15.834Z,99.90
2019-03-19T19:57:44.437Z,99.90
2019-03-19T20:00:17.961Z,99.90
2019-03-19T20:02:46.491Z,99.90
2019-03-19T20:05:15.079Z,99.90
2019-03-19T20:07:43.734Z,99.90
2019-03-19T20:10:40.247Z,99.90
2019-03-19T20:13:11.995Z,99.90
2019-03-19T20:15:40.440Z,99.90
2019-03-19T20:18:09.062Z,99.90
2019-03-19T20:20:37.550Z,99.90
2019-03-19T20:23:06.331Z,99.90
2019-03-19T20:25:34.786Z,99.90
2019-03-19T20:28:05.803Z,99.90
2019-03-19T20:30:34.515Z,99.90
2019-03-19T20:33:02.975Z,99.90
2019-03-19T20:35:31.507Z,99.90
2019-03-19T20:37:59.982Z,99.90
2019-03-19T20:40:28.422Z,99.90
2019-03-19T20:42:57.001Z,99.90
2019-03-19T20:45:26.869Z,99.90
2019-03-19T20:47:55.339Z,99.90
2019-03-19T20:50:26.113Z,99.90
2019-03-19T20:52:54.824Z,99.90
2019-03-19T20:55:23.549Z,99.90
2019-03-19T20:57:58.239Z,99.90
2019-03-19T21:00:26.007Z,99.90
2019-03-19T21:02:54.527Z,99.90
2019-03-19T21:05:23.174Z,99.90
2019-03-19T21:07:51.879Z,99.90
2019-03-19T21:10:32.920Z,99.90
2019-03-19T21:13:01.371Z,99.90
2019-03-19T21:15:31.318Z,99.90
2019-03-19T21:18:00.036Z,99.90
2019-03-19T21:20:28.525Z,99.90
2019-03-19T21:22:58.338Z,99.90
2019-03-19T21:25:26.868Z,99.90
2019-03-19T21:27:55.328Z,99.90
2019-03-19T21:30:24.512Z,99.90
2019-03-19T21:32:53.061Z,99.90
2019-03-19T21:35:25.423Z,99.90
2019-03-19T21:37:53.906Z,99.90
2019-03-19T21:40:22.351Z,99.90
2019-03-19T21:42:50.850Z,99.90
2019-03-19T21:45:20.902Z,99.90
2019-03-19T21:47:49.717Z,99.90
2019-03-19T21:50:23.312Z,99.90
2019-03-19T21:52:51.850Z,99.90
2019-03-19T21:55:20.298Z,99.90
2019-03-19T21:57:48.786Z,99.90
2019-03-19T22:00:25.032Z,99.90
2019-03-19T22:02:53.983Z,99.90
2019-03-19T22:05:22.420Z,99.90
2019-03-19T22:07:50.963Z,99.90
2019-03-19T22:10:21.541Z,99.90
2019-03-19T22:12:50.105Z,99.90
2019-03-19T22:15:20.305Z,99.90
2019-03-19T22:17:48.752Z,99.90
2019-03-19T22:20:17.350Z,99.90
2019-03-19T22:22:45.968Z,99.90
2019-03-19T22:25:15.369Z,99.90
2019-03-19T22:27:44.247Z,99.90
2019-03-19T22:30:22.187Z,99.90
2019-03-19T22:32:51.078Z,99.90
2019-03-19T22:35:19.815Z,99.90
2019-03-19T22:37:48.267Z,99.90
2019-03-19T22:40:17.769Z,99.90
2019-03-19T22:42:46.635Z,99.90
2019-03-19T22:45:16.622Z,99.90
2019-03-19T22:47:45.235Z,99.90
2019-03-19T22:50:15.699Z,99.90
2019-03-19T22:52:44.284Z,99.90
2019-03-19T22:55:14.002Z,99.90
2019-03-19T22:57:42.865Z,99.90
2019-03-19T23:00:45.940Z,99.90
2019-03-19T23:03:39.301Z,99.90
2019-03-19T23:06:07.765Z,99.90
2019-03-19T23:08:36.343Z,99.90
2019-03-19T23:11:04.944Z,99.90
2019-03-19T23:13:33.396Z,99.90
2019-03-19T23:16:01.849Z,99.90
2019-03-19T23:18:35.330Z,99.90
2019-03-19T23:21:03.993Z,99.90
2019-03-19T23:23:32.463Z,99.90
2019-03-19T23:26:00.924Z,99.90
2019-03-19T23:28:29.382Z,99.90
2019-03-19T23:30:57.835Z,99.90
2019-03-19T23:33:26.323Z,99.90
2019-03-19T23:35:54.763Z,99.90
2019-03-19T23:38:23.232Z,99.90
2019-03-19T23:40:51.960Z,99.90
2019-03-19T23:43:20.428Z,99.90
2019-03-19T23:45:48.876Z,99.90
2019-03-19T23:48:17.513Z,99.90
2019-03-19T23:50:45.996Z,99.90
2019-03-19T23:53:14.532Z,99.90
2019-03-19T23:55:47.536Z,99.90
2019-03-19T23:58:16.087Z,99.90
